sensor_id;sensor_type;location;lat;lon;timestamp;P1;durP1;ratioP1;P2;durP2;ratioP2
48327;SDS011;34136;51.022;7.082;2023-04-01T00:01:03;2.65;;;0.70;;
48327;SDS011;34136;51.022;7.082;2023-04-01T00:03:50;3.90;;;0.60;;
48327;SDS011;34136;51.022;7.082;2023-04-01T00:06:36;3.95;;;0.93;;
48327;SDS011;34136;51.022;7.082;2023-04-01T00:09:23;2.30;;;0.80;;
48327;SDS011;34136;51.022;7.082;2023-04-01T00:12:09;4.53;;;1.00;;
48327;SDS011;34136;51.022;7.082;2023-04-01T00:14:55;3.10;;;0.70;;
48327;SDS011;34136;51.022;7.082;2023-04-01T00:17:41;3.50;;;0.80;;
48327;SDS011;34136;51.022;7.082;2023-04-01T00:20:28;3.80;;;0.90;;
48327;SDS011;34136;51.022;7.082;2023-04-01T00:23:14;4.53;;;0.60;;
48327;SDS011;34136;51.022;7.082;2023-04-01T00:26:02;3.30;;;0.80;;
48327;SDS011;34136;51.022;7.082;2023-04-01T00:28:48;2.45;;;0.60;;
48327;SDS011;34136;51.022;7.082;2023-04-01T00:31:34;1.92;;;0.70;;
48327;SDS011;34136;51.022;7.082;2023-04-01T00:34:21;2.20;;;0.60;;
48327;SDS011;34136;51.022;7.082;2023-04-01T00:37:08;2.63;;;0.65;;
48327;SDS011;34136;51.022;7.082;2023-04-01T00:39:54;1.70;;;0.32;;
48327;SDS011;34136;51.022;7.082;2023-04-01T00:42:41;1.95;;;0.50;;
48327;SDS011;34136;51.022;7.082;2023-04-01T00:48:17;1.95;;;0.52;;
48327;SDS011;34136;51.022;7.082;2023-04-01T00:51:08;3.15;;;0.50;;
48327;SDS011;34136;51.022;7.082;2023-04-01T00:53:59;3.10;;;0.60;;
48327;SDS011;34136;51.022;7.082;2023-04-01T00:59:44;1.92;;;0.50;;
48327;SDS011;34136;51.022;7.082;2023-04-01T01:02:32;3.08;;;0.50;;
48327;SDS011;34136;51.022;7.082;2023-04-01T01:05:21;3.08;;;0.40;;
48327;SDS011;34136;51.022;7.082;2023-04-01T01:08:17;1.67;;;0.50;;
48327;SDS011;34136;51.022;7.082;2023-04-01T01:11:18;1.45;;;0.43;;
48327;SDS011;34136;51.022;7.082;2023-04-01T01:14:19;2.40;;;0.60;;
48327;SDS011;34136;51.022;7.082;2023-04-01T01:26:38;2.40;;;0.57;;
48327;SDS011;34136;51.022;7.082;2023-04-01T01:35:16;2.75;;;0.35;;
48327;SDS011;34136;51.022;7.082;2023-04-01T01:38:15;1.35;;;0.40;;
48327;SDS011;34136;51.022;7.082;2023-04-01T01:41:10;0.82;;;0.40;;
48327;SDS011;34136;51.022;7.082;2023-04-01T01:43:59;1.55;;;0.50;;
48327;SDS011;34136;51.022;7.082;2023-04-01T01:46:49;1.27;;;0.40;;
48327;SDS011;34136;51.022;7.082;2023-04-01T01:49:35;1.77;;;0.40;;
48327;SDS011;34136;51.022;7.082;2023-04-01T01:52:23;1.60;;;0.40;;
48327;SDS011;34136;51.022;7.082;2023-04-01T01:55:23;1.25;;;0.30;;
48327;SDS011;34136;51.022;7.082;2023-04-01T02:01:03;1.42;;;0.50;;
48327;SDS011;34136;51.022;7.082;2023-04-01T02:03:53;2.25;;;0.52;;
48327;SDS011;34136;51.022;7.082;2023-04-01T02:06:42;1.92;;;0.60;;
48327;SDS011;34136;51.022;7.082;2023-04-01T02:09:35;2.50;;;0.50;;
48327;SDS011;34136;51.022;7.082;2023-04-01T02:12:22;2.58;;;0.50;;
48327;SDS011;34136;51.022;7.082;2023-04-01T02:15:11;1.98;;;0.40;;
48327;SDS011;34136;51.022;7.082;2023-04-01T02:17:59;1.40;;;0.40;;
48327;SDS011;34136;51.022;7.082;2023-04-01T02:21:01;2.15;;;0.40;;
48327;SDS011;34136;51.022;7.082;2023-04-01T02:23:50;1.17;;;0.40;;
48327;SDS011;34136;51.022;7.082;2023-04-01T02:26:39;1.60;;;0.50;;
48327;SDS011;34136;51.022;7.082;2023-04-01T02:29:25;2.20;;;0.40;;
48327;SDS011;34136;51.022;7.082;2023-04-01T02:32:12;2.35;;;0.50;;
48327;SDS011;34136;51.022;7.082;2023-04-01T02:35:00;2.72;;;0.52;;
48327;SDS011;34136;51.022;7.082;2023-04-01T02:37:48;2.28;;;0.52;;
48327;SDS011;34136;51.022;7.082;2023-04-01T02:40:52;1.75;;;0.50;;
48327;SDS011;34136;51.022;7.082;2023-04-01T02:43:44;2.00;;;0.40;;
48327;SDS011;34136;51.022;7.082;2023-04-01T02:46:31;1.23;;;0.40;;
48327;SDS011;34136;51.022;7.082;2023-04-01T02:49:16;2.92;;;0.60;;
48327;SDS011;34136;51.022;7.082;2023-04-01T02:52:03;1.90;;;0.40;;
48327;SDS011;34136;51.022;7.082;2023-04-01T02:54:50;4.40;;;0.90;;
48327;SDS011;34136;51.022;7.082;2023-04-01T02:57:36;1.85;;;0.60;;
48327;SDS011;34136;51.022;7.082;2023-04-01T03:00:22;2.53;;;0.70;;
48327;SDS011;34136;51.022;7.082;2023-04-01T03:03:09;2.70;;;0.70;;
48327;SDS011;34136;51.022;7.082;2023-04-01T03:05:55;4.15;;;0.75;;
48327;SDS011;34136;51.022;7.082;2023-04-01T03:08:42;2.15;;;0.88;;
48327;SDS011;34136;51.022;7.082;2023-04-01T03:11:28;1.55;;;0.47;;
48327;SDS011;34136;51.022;7.082;2023-04-01T03:14:15;3.38;;;0.75;;
48327;SDS011;34136;51.022;7.082;2023-04-01T03:17:01;2.45;;;0.60;;
48327;SDS011;34136;51.022;7.082;2023-04-01T03:19:48;2.35;;;0.63;;
48327;SDS011;34136;51.022;7.082;2023-04-01T03:22:34;2.95;;;0.70;;
48327;SDS011;34136;51.022;7.082;2023-04-01T03:25:21;2.15;;;0.70;;
48327;SDS011;34136;51.022;7.082;2023-04-01T03:28:07;3.00;;;0.60;;
48327;SDS011;34136;51.022;7.082;2023-04-01T03:30:54;1.20;;;0.50;;
48327;SDS011;34136;51.022;7.082;2023-04-01T03:33:40;3.20;;;0.63;;
48327;SDS011;34136;51.022;7.082;2023-04-01T03:36:26;2.22;;;0.60;;
48327;SDS011;34136;51.022;7.082;2023-04-01T03:39:13;1.73;;;0.50;;
48327;SDS011;34136;51.022;7.082;2023-04-01T03:42:00;0.70;;;0.28;;
48327;SDS011;34136;51.022;7.082;2023-04-01T03:44:47;1.45;;;0.50;;
48327;SDS011;34136;51.022;7.082;2023-04-01T03:47:33;1.10;;;0.55;;
48327;SDS011;34136;51.022;7.082;2023-04-01T03:50:19;1.38;;;0.38;;
48327;SDS011;34136;51.022;7.082;2023-04-01T03:53:06;1.85;;;0.45;;
48327;SDS011;34136;51.022;7.082;2023-04-01T03:55:53;1.17;;;0.40;;
48327;SDS011;34136;51.022;7.082;2023-04-01T03:58:39;1.15;;;0.40;;
48327;SDS011;34136;51.022;7.082;2023-04-01T04:01:27;2.60;;;0.30;;
48327;SDS011;34136;51.022;7.082;2023-04-01T04:04:15;2.08;;;0.43;;
48327;SDS011;34136;51.022;7.082;2023-04-01T04:07:02;2.47;;;0.55;;
48327;SDS011;34136;51.022;7.082;2023-04-01T04:09:55;2.13;;;0.32;;
48327;SDS011;34136;51.022;7.082;2023-04-01T04:12:41;2.17;;;0.63;;
48327;SDS011;34136;51.022;7.082;2023-04-01T04:15:27;0.98;;;0.50;;
48327;SDS011;34136;51.022;7.082;2023-04-01T04:18:14;2.10;;;0.43;;
48327;SDS011;34136;51.022;7.082;2023-04-01T04:21:00;1.75;;;0.40;;
48327;SDS011;34136;51.022;7.082;2023-04-01T04:23:46;1.67;;;0.45;;
48327;SDS011;34136;51.022;7.082;2023-04-01T04:26:35;1.25;;;0.60;;
48327;SDS011;34136;51.022;7.082;2023-04-01T04:29:21;1.45;;;0.60;;
48327;SDS011;34136;51.022;7.082;2023-04-01T04:32:08;1.40;;;0.40;;
48327;SDS011;34136;51.022;7.082;2023-04-01T04:34:55;2.38;;;0.50;;
48327;SDS011;34136;51.022;7.082;2023-04-01T04:37:42;1.88;;;0.50;;
48327;SDS011;34136;51.022;7.082;2023-04-01T04:40:27;1.08;;;0.35;;
48327;SDS011;34136;51.022;7.082;2023-04-01T04:43:15;2.00;;;0.35;;
48327;SDS011;34136;51.022;7.082;2023-04-01T04:46:06;1.25;;;0.30;;
48327;SDS011;34136;51.022;7.082;2023-04-01T04:48:54;1.00;;;0.30;;
48327;SDS011;34136;51.022;7.082;2023-04-01T04:51:41;0.85;;;0.30;;
48327;SDS011;34136;51.022;7.082;2023-04-01T04:54:28;0.40;;;0.13;;
48327;SDS011;34136;51.022;7.082;2023-04-01T04:57:17;0.40;;;0.13;;
48327;SDS011;34136;51.022;7.082;2023-04-01T05:00:11;1.13;;;0.20;;
48327;SDS011;34136;51.022;7.082;2023-04-01T05:03:19;0.30;;;0.15;;
48327;SDS011;34136;51.022;7.082;2023-04-01T05:06:05;0.30;;;0.10;;
48327;SDS011;34136;51.022;7.082;2023-04-01T05:08:53;1.23;;;0.30;;
48327;SDS011;34136;51.022;7.082;2023-04-01T05:11:41;0.52;;;0.13;;
48327;SDS011;34136;51.022;7.082;2023-04-01T05:14:29;1.40;;;0.40;;
48327;SDS011;34136;51.022;7.082;2023-04-01T05:17:22;0.70;;;0.20;;
48327;SDS011;34136;51.022;7.082;2023-04-01T05:20:11;0.35;;;0.20;;
48327;SDS011;34136;51.022;7.082;2023-04-01T05:22:59;2.05;;;0.30;;
48327;SDS011;34136;51.022;7.082;2023-04-01T05:25:46;1.38;;;0.45;;
48327;SDS011;34136;51.022;7.082;2023-04-01T05:28:36;1.75;;;0.40;;
48327;SDS011;34136;51.022;7.082;2023-04-01T05:31:23;1.90;;;0.50;;
48327;SDS011;34136;51.022;7.082;2023-04-01T05:34:10;1.23;;;0.47;;
48327;SDS011;34136;51.022;7.082;2023-04-01T05:36:56;2.90;;;0.35;;
48327;SDS011;34136;51.022;7.082;2023-04-01T05:39:43;0.98;;;0.40;;
48327;SDS011;34136;51.022;7.082;2023-04-01T05:42:29;1.98;;;0.47;;
48327;SDS011;34136;51.022;7.082;2023-04-01T05:45:15;1.02;;;0.40;;
48327;SDS011;34136;51.022;7.082;2023-04-01T05:48:17;2.08;;;0.45;;
48327;SDS011;34136;51.022;7.082;2023-04-01T05:51:04;1.58;;;0.40;;
48327;SDS011;34136;51.022;7.082;2023-04-01T05:53:50;1.27;;;0.38;;
48327;SDS011;34136;51.022;7.082;2023-04-01T05:56:38;3.13;;;0.40;;
48327;SDS011;34136;51.022;7.082;2023-04-01T05:59:24;0.40;;;0.30;;
48327;SDS011;34136;51.022;7.082;2023-04-01T06:02:10;1.05;;;0.43;;
48327;SDS011;34136;51.022;7.082;2023-04-01T06:05:30;1.77;;;0.40;;
48327;SDS011;34136;51.022;7.082;2023-04-01T06:08:11;0.98;;;0.32;;
48327;SDS011;34136;51.022;7.082;2023-04-01T06:14:23;0.70;;;0.40;;
48327;SDS011;34136;51.022;7.082;2023-04-01T06:23:33;2.85;;;0.70;;
48327;SDS011;34136;51.022;7.082;2023-04-01T06:45:22;2.70;;;0.95;;
48327;SDS011;34136;51.022;7.082;2023-04-01T06:48:39;1.92;;;0.98;;
48327;SDS011;34136;51.022;7.082;2023-04-01T06:52:13;3.83;;;1.00;;
48327;SDS011;34136;51.022;7.082;2023-04-01T07:04:56;2.15;;;0.98;;
48327;SDS011;34136;51.022;7.082;2023-04-01T07:07:48;2.17;;;1.33;;
48327;SDS011;34136;51.022;7.082;2023-04-01T07:14:01;2.40;;;1.08;;
48327;SDS011;34136;51.022;7.082;2023-04-01T07:17:17;2.75;;;1.27;;
48327;SDS011;34136;51.022;7.082;2023-04-01T07:20:16;2.70;;;1.15;;
48327;SDS011;34136;51.022;7.082;2023-04-01T07:23:08;3.55;;;1.40;;
48327;SDS011;34136;51.022;7.082;2023-04-01T07:26:22;2.55;;;1.10;;
48327;SDS011;34136;51.022;7.082;2023-04-01T07:29:27;3.13;;;1.20;;
48327;SDS011;34136;51.022;7.082;2023-04-01T07:38:45;3.50;;;1.25;;
48327;SDS011;34136;51.022;7.082;2023-04-01T07:41:39;2.80;;;1.23;;
48327;SDS011;34136;51.022;7.082;2023-04-01T07:44:54;3.20;;;1.48;;
48327;SDS011;34136;51.022;7.082;2023-04-01T07:51:02;2.47;;;1.45;;
48327;SDS011;34136;51.022;7.082;2023-04-01T07:56:55;3.13;;;1.50;;
48327;SDS011;34136;51.022;7.082;2023-04-01T08:03:06;3.05;;;1.48;;
48327;SDS011;34136;51.022;7.082;2023-04-01T08:06:19;4.45;;;1.67;;
48327;SDS011;34136;51.022;7.082;2023-04-01T08:09:39;4.63;;;1.70;;
48327;SDS011;34136;51.022;7.082;2023-04-01T08:16:53;4.55;;;1.40;;
48327;SDS011;34136;51.022;7.082;2023-04-01T08:23:11;1.92;;;1.20;;
48327;SDS011;34136;51.022;7.082;2023-04-01T08:26:06;3.15;;;1.30;;
48327;SDS011;34136;51.022;7.082;2023-04-01T08:35:07;2.08;;;0.90;;
48327;SDS011;34136;51.022;7.082;2023-04-01T08:38:12;1.77;;;1.13;;
48327;SDS011;34136;51.022;7.082;2023-04-01T08:57:10;2.80;;;1.00;;
48327;SDS011;34136;51.022;7.082;2023-04-01T09:18:24;2.35;;;0.90;;
48327;SDS011;34136;51.022;7.082;2023-04-01T09:21:29;2.45;;;1.00;;
48327;SDS011;34136;51.022;7.082;2023-04-01T09:24:40;2.97;;;1.20;;
48327;SDS011;34136;51.022;7.082;2023-04-01T09:28:16;2.88;;;1.52;;
48327;SDS011;34136;51.022;7.082;2023-04-01T09:34:06;2.10;;;0.90;;
48327;SDS011;34136;51.022;7.082;2023-04-01T09:40:58;2.05;;;1.30;;
48327;SDS011;34136;51.022;7.082;2023-04-01T09:44:23;2.05;;;1.30;;
48327;SDS011;34136;51.022;7.082;2023-04-01T09:47:32;2.63;;;1.50;;
48327;SDS011;34136;51.022;7.082;2023-04-01T09:51:00;1.95;;;1.27;;
48327;SDS011;34136;51.022;7.082;2023-04-01T09:54:07;2.00;;;1.45;;
48327;SDS011;34136;51.022;7.082;2023-04-01T10:00:44;3.17;;;1.35;;
48327;SDS011;34136;51.022;7.082;2023-04-01T10:16:20;1.67;;;1.58;;
48327;SDS011;34136;51.022;7.082;2023-04-01T10:25:15;2.05;;;1.80;;
48327;SDS011;34136;51.022;7.082;2023-04-01T10:34:59;2.67;;;1.98;;
48327;SDS011;34136;51.022;7.082;2023-04-01T10:38:13;2.30;;;2.10;;
48327;SDS011;34136;51.022;7.082;2023-04-01T10:48:02;2.88;;;1.70;;
48327;SDS011;34136;51.022;7.082;2023-04-01T10:54:30;2.05;;;1.33;;
48327;SDS011;34136;51.022;7.082;2023-04-01T11:24:08;2.58;;;2.38;;
48327;SDS011;34136;51.022;7.082;2023-04-01T11:44:17;3.10;;;2.80;;
48327;SDS011;34136;51.022;7.082;2023-04-01T11:47:28;4.35;;;3.30;;
48327;SDS011;34136;51.022;7.082;2023-04-01T11:50:58;3.38;;;3.08;;
48327;SDS011;34136;51.022;7.082;2023-04-01T12:06:52;4.22;;;2.60;;
48327;SDS011;34136;51.022;7.082;2023-04-01T12:12:54;2.70;;;2.50;;
48327;SDS011;34136;51.022;7.082;2023-04-01T12:19:21;2.88;;;2.67;;
48327;SDS011;34136;51.022;7.082;2023-04-01T12:25:38;4.03;;;3.40;;
48327;SDS011;34136;51.022;7.082;2023-04-01T12:41:23;3.10;;;2.80;;
48327;SDS011;34136;51.022;7.082;2023-04-01T13:08:10;2.30;;;1.90;;
48327;SDS011;34136;51.022;7.082;2023-04-01T13:13:51;2.10;;;1.90;;
48327;SDS011;34136;51.022;7.082;2023-04-01T13:20:19;2.88;;;2.60;;
48327;SDS011;34136;51.022;7.082;2023-04-01T13:29:18;3.50;;;3.13;;
48327;SDS011;34136;51.022;7.082;2023-04-01T13:32:27;3.42;;;3.00;;
48327;SDS011;34136;51.022;7.082;2023-04-01T13:42:02;2.83;;;2.40;;
48327;SDS011;34136;51.022;7.082;2023-04-01T14:10:19;7.38;;;6.18;;
48327;SDS011;34136;51.022;7.082;2023-04-01T14:19:11;4.88;;;4.47;;
48327;SDS011;34136;51.022;7.082;2023-04-01T14:40:27;5.78;;;4.55;;
48327;SDS011;34136;51.022;7.082;2023-04-01T14:43:27;4.68;;;4.28;;
48327;SDS011;34136;51.022;7.082;2023-04-01T14:52:27;5.57;;;4.22;;
48327;SDS011;34136;51.022;7.082;2023-04-01T14:55:29;4.97;;;4.55;;
48327;SDS011;34136;51.022;7.082;2023-04-01T14:58:21;7.25;;;5.18;;
48327;SDS011;34136;51.022;7.082;2023-04-01T15:10:22;6.20;;;5.47;;
48327;SDS011;34136;51.022;7.082;2023-04-01T15:22:30;7.82;;;7.13;;
48327;SDS011;34136;51.022;7.082;2023-04-01T15:32:17;8.27;;;7.47;;
48327;SDS011;34136;51.022;7.082;2023-04-01T15:38:21;7.55;;;6.85;;
48327;SDS011;34136;51.022;7.082;2023-04-01T15:41:11;7.00;;;6.00;;
48327;SDS011;34136;51.022;7.082;2023-04-01T15:50:24;7.38;;;6.18;;
48327;SDS011;34136;51.022;7.082;2023-04-01T15:53:24;6.38;;;5.72;;
48327;SDS011;34136;51.022;7.082;2023-04-01T15:59:03;6.63;;;6.03;;
